sensor_id;sensor_type;location;lat;lon;timestamp;pressure;altitude;pressure_sealevel;temperature;humidity
70200;BME280;57587;55.688;37.600;2023-02-23T00:01:54;99370.94;;;-8.70;50.18
70200;BME280;57587;55.688;37.600;2023-02-23T00:04:22;99372.13;;;-8.77;50.41
70200;BME280;57587;55.688;37.600;2023-02-23T00:06:50;99377.59;;;-8.84;50.66
70200;BME280;57587;55.688;37.600;2023-02-23T00:09:18;99377.59;;;-8.84;50.68
70200;BME280;57587;55.688;37.600;2023-02-23T00:11:52;99380.97;;;-8.82;50.10
70200;BME280;57587;55.688;37.600;2023-02-23T00:14:24;99381.00;;;-8.83;49.99
70200;BME280;57587;55.688;37.600;2023-02-23T00:16:54;99386.34;;;-8.86;50.97
70200;BME280;57587;55.688;37.600;2023-02-23T00:19:22;99381.22;;;-8.88;50.61
70200;BME280;57587;55.688;37.600;2023-02-23T00:21:52;99388.16;;;-8.88;50.00
70200;BME280;57587;55.688;37.600;2023-02-23T00:24:19;99394.31;;;-8.91;50.93
70200;BME280;57587;55.688;37.600;2023-02-23T00:26:47;99393.34;;;-8.88;50.27
70200;BME280;57587;55.688;37.600;2023-02-23T00:29:21;99399.31;;;-8.86;49.55
70200;BME280;57587;55.688;37.600;2023-02-23T00:31:50;99396.91;;;-8.91;50.69
70200;BME280;57587;55.688;37.600;2023-02-23T00:34:19;99392.22;;;-8.83;50.34
70200;BME280;57587;55.688;37.600;2023-02-23T00:36:52;99407.38;;;-8.73;49.34
70200;BME280;57587;55.688;37.600;2023-02-23T00:39:22;99399.59;;;-8.73;48.90
70200;BME280;57587;55.688;37.600;2023-02-23T00:41:56;99398.47;;;-8.87;49.57
70200;BME280;57587;55.688;37.600;2023-02-23T00:44:28;99399.56;;;-8.92;49.56
70200;BME280;57587;55.688;37.600;2023-02-23T00:46:56;99400.34;;;-8.90;50.25
70200;BME280;57587;55.688;37.600;2023-02-23T00:49:23;99402.09;;;-8.91;49.30
70200;BME280;57587;55.688;37.600;2023-02-23T00:51:50;99407.16;;;-8.88;49.81
70200;BME280;57587;55.688;37.600;2023-02-23T00:54:20;99411.50;;;-8.88;49.98
70200;BME280;57587;55.688;37.600;2023-02-23T00:56:48;99411.81;;;-8.96;49.73
70200;BME280;57587;55.688;37.600;2023-02-23T00:59:16;99410.28;;;-9.00;49.79
70200;BME280;57587;55.688;37.600;2023-02-23T01:01:43;99417.91;;;-8.97;50.99
70200;BME280;57587;55.688;37.600;2023-02-23T01:04:11;99413.84;;;-9.02;50.18
70200;BME280;57587;55.688;37.600;2023-02-23T01:06:39;99415.81;;;-8.89;50.86
70200;BME280;57587;55.688;37.600;2023-02-23T01:09:10;99405.47;;;-8.89;49.10
70200;BME280;57587;55.688;37.600;2023-02-23T01:11:37;99411.50;;;-8.88;49.79
70200;BME280;57587;55.688;37.600;2023-02-23T01:14:04;99413.06;;;-8.84;49.98
70200;BME280;57587;55.688;37.600;2023-02-23T01:16:33;99421.94;;;-8.90;49.43
70200;BME280;57587;55.688;37.600;2023-02-23T01:19:02;99425.56;;;-8.94;49.51
70200;BME280;57587;55.688;37.600;2023-02-23T01:21:32;99419.69;;;-8.97;49.70
70200;BME280;57587;55.688;37.600;2023-02-23T01:24:00;99425.16;;;-9.05;50.04
70200;BME280;57587;55.688;37.600;2023-02-23T01:26:33;99431.94;;;-9.01;50.39
70200;BME280;57587;55.688;37.600;2023-02-23T01:29:12;99435.28;;;-8.99;49.76
70200;BME280;57587;55.688;37.600;2023-02-23T01:31:45;99438.09;;;-9.03;50.21
70200;BME280;57587;55.688;37.600;2023-02-23T01:34:17;99431.94;;;-9.01;50.11
70200;BME280;57587;55.688;37.600;2023-02-23T01:36:44;99438.34;;;-9.10;50.46
70200;BME280;57587;55.688;37.600;2023-02-23T01:39:18;99444.09;;;-9.03;49.97
70200;BME280;57587;55.688;37.600;2023-02-23T01:41:45;99436.19;;;-9.00;49.96
70200;BME280;57587;55.688;37.600;2023-02-23T01:46:43;99427.84;;;-9.07;49.75
70200;BME280;57587;55.688;37.600;2023-02-23T01:49:15;99428.59;;;-9.05;49.89
70200;BME280;57587;55.688;37.600;2023-02-23T01:51:49;99425.31;;;-9.08;49.27
70200;BME280;57587;55.688;37.600;2023-02-23T01:54:21;99418.34;;;-9.08;49.15
70200;BME280;57587;55.688;37.600;2023-02-23T01:56:52;99428.56;;;-9.03;49.23
70200;BME280;57587;55.688;37.600;2023-02-23T02:00:00;99430.59;;;-9.11;49.23
70200;BME280;57587;55.688;37.600;2023-02-23T02:02:25;99438.09;;;-9.03;49.71
70200;BME280;57587;55.688;37.600;2023-02-23T02:05:01;99448.44;;;-9.03;50.25
70200;BME280;57587;55.688;37.600;2023-02-23T02:07:31;99449.03;;;-8.97;49.01
70200;BME280;57587;55.688;37.600;2023-02-23T02:10:01;99444.94;;;-9.02;49.51
70200;BME280;57587;55.688;37.600;2023-02-23T02:12:41;99440.59;;;-9.02;50.13
70200;BME280;57587;55.688;37.600;2023-02-23T02:15:11;99447.34;;;-8.98;49.73
70200;BME280;57587;55.688;37.600;2023-02-23T02:44:54;99462.00;;;-8.97;49.47
70200;BME280;57587;55.688;37.600;2023-02-23T02:47:31;99468.34;;;-9.04;49.65
70200;BME280;57587;55.688;37.600;2023-02-23T02:53:00;99464.97;;;-9.06;49.78
70200;BME280;57587;55.688;37.600;2023-02-23T02:55:31;99460.81;;;-9.10;49.43
70200;BME280;57587;55.688;37.600;2023-02-23T02:58:02;99469.44;;;-9.10;48.93
70200;BME280;57587;55.688;37.600;2023-02-23T03:06:21;99476.44;;;-9.12;49.22
70200;BME280;57587;55.688;37.600;2023-02-23T03:12:20;99474.53;;;-9.29;50.03
70200;BME280;57587;55.688;37.600;2023-02-23T03:15:26;99475.66;;;-9.36;50.11
70200;BME280;57587;55.688;37.600;2023-02-23T03:21:29;99472.59;;;-9.45;50.23
70200;BME280;57587;55.688;37.600;2023-02-23T03:24:42;99463.44;;;-9.54;50.28
70200;BME280;57587;55.688;37.600;2023-02-23T03:27:44;99475.16;;;-9.44;49.59
70200;BME280;57587;55.688;37.600;2023-02-23T03:33:53;99478.63;;;-9.45;50.59
70200;BME280;57587;55.688;37.600;2023-02-23T03:36:50;99474.31;;;-9.44;50.31
70200;BME280;57587;55.688;37.600;2023-02-23T03:39:46;99480.50;;;-9.48;49.19
70200;BME280;57587;55.688;37.600;2023-02-23T03:42:37;99494.53;;;-9.54;49.61
70200;BME280;57587;55.688;37.600;2023-02-23T03:45:25;99496.59;;;-9.62;49.99
70200;BME280;57587;55.688;37.600;2023-02-23T03:48:14;99494.75;;;-9.60;50.04
70200;BME280;57587;55.688;37.600;2023-02-23T03:51:05;99497.34;;;-9.60;49.91
70200;BME280;57587;55.688;37.600;2023-02-23T03:54:16;99504.03;;;-9.55;49.66
70200;BME280;57587;55.688;37.600;2023-02-23T03:57:07;99500.28;;;-9.69;49.44
70200;BME280;57587;55.688;37.600;2023-02-23T03:59:58;99502.13;;;-9.71;51.16
70200;BME280;57587;55.688;37.600;2023-02-23T04:02:49;99492.72;;;-9.74;49.80
70200;BME280;57587;55.688;37.600;2023-02-23T04:05:38;99500.41;;;-9.72;50.22
70200;BME280;57587;55.688;37.600;2023-02-23T04:08:31;99508.25;;;-9.74;49.83
70200;BME280;57587;55.688;37.600;2023-02-23T04:14:25;99512.59;;;-9.75;49.68
70200;BME280;57587;55.688;37.600;2023-02-23T04:16:56;99511.97;;;-9.81;50.06
70200;BME280;57587;55.688;37.600;2023-02-23T04:19:27;99511.88;;;-9.78;50.11
70200;BME280;57587;55.688;37.600;2023-02-23T04:21:55;99518.41;;;-9.69;49.65
70200;BME280;57587;55.688;37.600;2023-02-23T04:24:22;99516.16;;;-9.79;49.65
70200;BME280;57587;55.688;37.600;2023-02-23T04:26:49;99518.66;;;-9.76;49.50
70200;BME280;57587;55.688;37.600;2023-02-23T04:29:16;99518.53;;;-9.72;49.59
70200;BME280;57587;55.688;37.600;2023-02-23T04:31:43;99518.59;;;-9.74;49.93
70200;BME280;57587;55.688;37.600;2023-02-23T04:34:10;99514.00;;;-9.89;49.45
70200;BME280;57587;55.688;37.600;2023-02-23T04:36:37;99516.94;;;-9.99;49.84
70200;BME280;57587;55.688;37.600;2023-02-23T04:39:04;99525.41;;;-9.95;50.60
70200;BME280;57587;55.688;37.600;2023-02-23T04:41:31;99518.72;;;-10.01;49.62
70200;BME280;57587;55.688;37.600;2023-02-23T04:43:58;99529.94;;;-10.00;49.99
70200;BME280;57587;55.688;37.600;2023-02-23T04:46:25;99518.22;;;-10.10;49.96
70200;BME280;57587;55.688;37.600;2023-02-23T04:48:52;99524.97;;;-10.06;50.04
70200;BME280;57587;55.688;37.600;2023-02-23T04:51:19;99524.28;;;-10.11;50.34
70200;BME280;57587;55.688;37.600;2023-02-23T04:53:47;99532.09;;;-10.13;49.38
70200;BME280;57587;55.688;37.600;2023-02-23T04:56:14;99529.47;;;-10.11;49.58
70200;BME280;57587;55.688;37.600;2023-02-23T04:58:41;99526.69;;;-10.07;49.52
70200;BME280;57587;55.688;37.600;2023-02-23T05:01:08;99539.72;;;-10.08;50.04
70200;BME280;57587;55.688;37.600;2023-02-23T05:03:35;99543.13;;;-10.08;50.05
70200;BME280;57587;55.688;37.600;2023-02-23T05:06:02;99541.56;;;-10.12;50.16
70200;BME280;57587;55.688;37.600;2023-02-23T05:08:30;99544.56;;;-9.99;49.15
70200;BME280;57587;55.688;37.600;2023-02-23T05:10:57;99544.22;;;-9.90;49.18
70200;BME280;57587;55.688;37.600;2023-02-23T05:13:24;99538.66;;;-10.03;49.22
70200;BME280;57587;55.688;37.600;2023-02-23T05:15:55;99556.25;;;-9.89;48.97
70200;BME280;57587;55.688;37.600;2023-02-23T05:18:24;99546.09;;;-9.93;48.90
70200;BME280;57587;55.688;37.600;2023-02-23T05:20:52;99555.22;;;-9.85;49.58
70200;BME280;57587;55.688;37.600;2023-02-23T05:23:19;99559.41;;;-9.81;48.84
70200;BME280;57587;55.688;37.600;2023-02-23T05:25:47;99553.44;;;-9.83;48.91
70200;BME280;57587;55.688;37.600;2023-02-23T05:28:14;99562.28;;;-9.88;49.51
70200;BME280;57587;55.688;37.600;2023-02-23T05:30:41;99565.66;;;-9.63;49.32
70200;BME280;57587;55.688;37.600;2023-02-23T05:33:09;99559.22;;;-9.53;48.25
70200;BME280;57587;55.688;37.600;2023-02-23T05:35:39;99558.16;;;-9.47;48.29
70200;BME280;57587;55.688;37.600;2023-02-23T05:38:07;99565.97;;;-9.48;48.34
70200;BME280;57587;55.688;37.600;2023-02-23T05:40:35;99564.72;;;-9.38;48.24
70200;BME280;57587;55.688;37.600;2023-02-23T05:43:02;99559.72;;;-9.21;48.13
70200;BME280;57587;55.688;37.600;2023-02-23T05:45:29;99576.47;;;-9.08;47.49
70200;BME280;57587;55.688;37.600;2023-02-23T05:47:56;99567.38;;;-8.96;47.41
70200;BME280;57587;55.688;37.600;2023-02-23T05:50:24;99564.00;;;-8.76;47.10
70200;BME280;57587;55.688;37.600;2023-02-23T05:52:51;99567.06;;;-8.66;46.73
70200;BME280;57587;55.688;37.600;2023-02-23T05:55:19;99562.56;;;-8.63;45.84
70200;BME280;57587;55.688;37.600;2023-02-23T05:57:46;99559.38;;;-8.49;46.41
70200;BME280;57587;55.688;37.600;2023-02-23T06:00:13;99563.56;;;-8.45;45.46
70200;BME280;57587;55.688;37.600;2023-02-23T06:02:40;99566.91;;;-8.22;45.46
70200;BME280;57587;55.688;37.600;2023-02-23T06:05:08;99567.22;;;-7.91;44.93
70200;BME280;57587;55.688;37.600;2023-02-23T06:07:36;99568.09;;;-7.71;44.72
70200;BME280;57587;55.688;37.600;2023-02-23T06:10:04;99570.41;;;-7.65;44.44
70200;BME280;57587;55.688;37.600;2023-02-23T06:12:31;99571.91;;;-7.59;43.31
70200;BME280;57587;55.688;37.600;2023-02-23T06:14:58;99576.53;;;-7.66;44.77
70200;BME280;57587;55.688;37.600;2023-02-23T06:17:25;99589.38;;;-7.63;44.36
70200;BME280;57587;55.688;37.600;2023-02-23T06:19:52;99592.00;;;-7.63;44.39
70200;BME280;57587;55.688;37.600;2023-02-23T06:22:20;99588.19;;;-7.56;43.89
70200;BME280;57587;55.688;37.600;2023-02-23T06:24:47;99592.63;;;-7.58;44.32
70200;BME280;57587;55.688;37.600;2023-02-23T06:27:15;99586.72;;;-7.24;43.64
70200;BME280;57587;55.688;37.600;2023-02-23T06:29:42;99586.91;;;-7.09;42.88
70200;BME280;57587;55.688;37.600;2023-02-23T06:32:09;99587.19;;;-6.97;42.55
70200;BME280;57587;55.688;37.600;2023-02-23T06:34:43;99576.66;;;-6.93;42.02
70200;BME280;57587;55.688;37.600;2023-02-23T06:37:11;99591.38;;;-6.58;40.92
70200;BME280;57587;55.688;37.600;2023-02-23T06:39:38;99586.63;;;-6.32;41.84
70200;BME280;57587;55.688;37.600;2023-02-23T06:42:05;99585.13;;;-5.70;39.79
70200;BME280;57587;55.688;37.600;2023-02-23T06:44:32;99593.19;;;-5.41;39.00
70200;BME280;57587;55.688;37.600;2023-02-23T06:47:03;99594.78;;;-5.39;39.17
70200;BME280;57587;55.688;37.600;2023-02-23T06:49:31;99597.47;;;-5.24;38.87
70200;BME280;57587;55.688;37.600;2023-02-23T06:51:59;99593.53;;;-5.16;38.29
70200;BME280;57587;55.688;37.600;2023-02-23T06:54:26;99599.91;;;-5.05;38.80
70200;BME280;57587;55.688;37.600;2023-02-23T06:56:53;99600.41;;;-4.99;38.51
70200;BME280;57587;55.688;37.600;2023-02-23T06:59:21;99592.47;;;-4.66;36.96
70200;BME280;57587;55.688;37.600;2023-02-23T07:01:50;99592.63;;;-4.69;37.71
70200;BME280;57587;55.688;37.600;2023-02-23T07:04:17;99604.41;;;-4.61;37.54
70200;BME280;57587;55.688;37.600;2023-02-23T07:06:44;99598.75;;;-3.79;36.88
70200;BME280;57587;55.688;37.600;2023-02-23T07:09:11;99598.28;;;-3.72;36.83
70200;BME280;57587;55.688;37.600;2023-02-23T07:11:38;99603.66;;;-3.32;36.14
70200;BME280;57587;55.688;37.600;2023-02-23T07:14:09;99604.44;;;-2.61;35.01
70200;BME280;57587;55.688;37.600;2023-02-23T07:16:43;99605.34;;;-2.75;34.75
70200;BME280;57587;55.688;37.600;2023-02-23T07:19:11;99604.56;;;-3.04;34.53
70200;BME280;57587;55.688;37.600;2023-02-23T07:21:38;99604.09;;;-2.42;35.18
70200;BME280;57587;55.688;37.600;2023-02-23T07:24:05;99609.88;;;-2.64;35.11
70200;BME280;57587;55.688;37.600;2023-02-23T07:26:32;99611.97;;;-2.69;34.86
70200;BME280;57587;55.688;37.600;2023-02-23T07:28:59;99616.19;;;-3.08;35.31
70200;BME280;57587;55.688;37.600;2023-02-23T07:31:27;99617.66;;;-3.04;35.42
70200;BME280;57587;55.688;37.600;2023-02-23T07:33:55;99626.25;;;-3.02;35.21
70200;BME280;57587;55.688;37.600;2023-02-23T07:36:23;99625.50;;;-3.04;35.70
70200;BME280;57587;55.688;37.600;2023-02-23T07:38:50;99631.16;;;-2.83;35.63
70200;BME280;57587;55.688;37.600;2023-02-23T07:41:17;99633.41;;;-2.50;34.82
70200;BME280;57587;55.688;37.600;2023-02-23T07:43:45;99626.75;;;-2.68;34.83
70200;BME280;57587;55.688;37.600;2023-02-23T07:46:12;99636.88;;;-2.10;34.85
70200;BME280;57587;55.688;37.600;2023-02-23T07:48:41;99639.66;;;-1.73;33.56
70200;BME280;57587;55.688;37.600;2023-02-23T07:51:14;99640.03;;;-1.15;33.08
70200;BME280;57587;55.688;37.600;2023-02-23T07:53:42;99624.50;;;-1.05;32.63
70200;BME280;57587;55.688;37.600;2023-02-23T07:56:10;99633.44;;;-0.71;32.05
70200;BME280;57587;55.688;37.600;2023-02-23T07:58:40;99623.66;;;0.71;30.43
70200;BME280;57587;55.688;37.600;2023-02-23T08:01:08;99620.16;;;1.04;30.04
70200;BME280;57587;55.688;37.600;2023-02-23T08:03:35;99620.97;;;2.54;29.00
70200;BME280;57587;55.688;37.600;2023-02-23T08:06:03;99617.63;;;2.52;27.60
70200;BME280;57587;55.688;37.600;2023-02-23T08:08:30;99611.25;;;3.45;26.56
70200;BME280;57587;55.688;37.600;2023-02-23T08:11:01;99617.75;;;3.31;26.61
70200;BME280;57587;55.688;37.600;2023-02-23T08:13:29;99625.47;;;3.92;26.28
70200;BME280;57587;55.688;37.600;2023-02-23T08:15:57;99614.53;;;4.81;24.77
70200;BME280;57587;55.688;37.600;2023-02-23T08:18:25;99605.09;;;5.52;24.82
70200;BME280;57587;55.688;37.600;2023-02-23T08:21:00;99611.88;;;5.37;23.98
70200;BME280;57587;55.688;37.600;2023-02-23T08:23:29;99609.69;;;5.50;23.99
70200;BME280;57587;55.688;37.600;2023-02-23T08:25:56;99613.34;;;6.20;23.13
70200;BME280;57587;55.688;37.600;2023-02-23T08:28:26;99611.53;;;6.47;22.70
70200;BME280;57587;55.688;37.600;2023-02-23T08:30:53;99607.22;;;7.14;22.90
70200;BME280;57587;55.688;37.600;2023-02-23T08:33:21;99602.22;;;7.11;22.24
70200;BME280;57587;55.688;37.600;2023-02-23T08:35:48;99608.22;;;8.13;21.67
70200;BME280;57587;55.688;37.600;2023-02-23T08:38:15;99612.03;;;8.35;21.44
70200;BME280;57587;55.688;37.600;2023-02-23T08:40:44;99603.53;;;8.31;20.63
70200;BME280;57587;55.688;37.600;2023-02-23T08:43:11;99609.41;;;8.99;20.64
70200;BME280;57587;55.688;37.600;2023-02-23T08:45:38;99612.50;;;8.71;20.08
70200;BME280;57587;55.688;37.600;2023-02-23T08:48:06;99615.22;;;8.06;21.09
70200;BME280;57587;55.688;37.600;2023-02-23T08:50:34;99615.03;;;8.57;20.80
70200;BME280;57587;55.688;37.600;2023-02-23T08:53:01;99617.03;;;8.46;20.74
70200;BME280;57587;55.688;37.600;2023-02-23T08:55:30;99618.94;;;9.87;20.07
70200;BME280;57587;55.688;37.600;2023-02-23T08:57:58;99613.59;;;9.64;20.06
70200;BME280;57587;55.688;37.600;2023-02-23T09:00:25;99624.44;;;10.69;19.04
70200;BME280;57587;55.688;37.600;2023-02-23T09:02:52;99612.84;;;12.00;18.30
70200;BME280;57587;55.688;37.600;2023-02-23T09:05:19;99615.00;;;12.33;17.24
70200;BME280;57587;55.688;37.600;2023-02-23T09:07:46;99611.50;;;12.96;16.63
70200;BME280;57587;55.688;37.600;2023-02-23T09:10:18;99614.06;;;13.65;16.44
70200;BME280;57587;55.688;37.600;2023-02-23T09:12:45;99606.88;;;13.79;15.48
70200;BME280;57587;55.688;37.600;2023-02-23T09:15:12;99611.03;;;13.81;15.75
70200;BME280;57587;55.688;37.600;2023-02-23T09:17:40;99609.81;;;14.04;15.40
70200;BME280;57587;55.688;37.600;2023-02-23T09:20:11;99599.47;;;14.14;15.34
70200;BME280;57587;55.688;37.600;2023-02-23T09:22:42;99610.03;;;14.49;15.60
70200;BME280;57587;55.688;37.600;2023-02-23T09:25:16;99613.16;;;14.72;14.92
70200;BME280;57587;55.688;37.600;2023-02-23T09:27:53;99610.25;;;14.81;15.15
70200;BME280;57587;55.688;37.600;2023-02-23T09:30:22;99617.22;;;15.02;14.96
70200;BME280;57587;55.688;37.600;2023-02-23T09:32:49;99610.38;;;15.06;14.86
70200;BME280;57587;55.688;37.600;2023-02-23T09:35:19;99603.50;;;15.16;14.88
70200;BME280;57587;55.688;37.600;2023-02-23T09:37:48;99609.69;;;15.23;14.28
70200;BME280;57587;55.688;37.600;2023-02-23T09:40:19;99596.44;;;15.22;14.19
70200;BME280;57587;55.688;37.600;2023-02-23T09:48:26;99592.09;;;15.59;14.70
70200;BME280;57587;55.688;37.600;2023-02-23T09:50:59;99595.41;;;15.61;14.79
70200;BME280;57587;55.688;37.600;2023-02-23T09:53:33;99595.84;;;15.13;14.36
70200;BME280;57587;55.688;37.600;2023-02-23T09:56:06;99598.06;;;15.23;14.36
70200;BME280;57587;55.688;37.600;2023-02-23T09:58:38;99604.72;;;15.27;14.39
70200;BME280;57587;55.688;37.600;2023-02-23T10:03:52;99593.94;;;15.20;15.03
70200;BME280;57587;55.688;37.600;2023-02-23T10:06:21;99581.59;;;14.86;14.55
70200;BME280;57587;55.688;37.600;2023-02-23T10:11:55;99580.00;;;13.86;14.80
70200;BME280;57587;55.688;37.600;2023-02-23T10:20:25;99573.97;;;13.09;16.33
70200;BME280;57587;55.688;37.600;2023-02-23T10:22:56;99579.91;;;12.63;15.75
70200;BME280;57587;55.688;37.600;2023-02-23T10:25:30;99575.25;;;12.78;16.21
70200;BME280;57587;55.688;37.600;2023-02-23T10:27:59;99580.53;;;12.65;15.62
70200;BME280;57587;55.688;37.600;2023-02-23T10:30:29;99572.88;;;12.62;16.22
70200;BME280;57587;55.688;37.600;2023-02-23T10:35:38;99573.28;;;12.59;15.79
70200;BME280;57587;55.688;37.600;2023-02-23T10:38:07;99572.41;;;12.52;16.44
70200;BME280;57587;55.688;37.600;2023-02-23T10:40:34;99574.84;;;12.46;16.35
70200;BME280;57587;55.688;37.600;2023-02-23T10:43:02;99568.75;;;12.31;16.07
70200;BME280;57587;55.688;37.600;2023-02-23T10:45:34;99576.75;;;12.25;16.33
70200;BME280;57587;55.688;37.600;2023-02-23T10:48:07;99567.34;;;11.86;16.48
70200;BME280;57587;55.688;37.600;2023-02-23T10:50:36;99570.88;;;11.86;16.74
70200;BME280;57587;55.688;37.600;2023-02-23T10:53:26;99576.63;;;11.68;16.91
70200;BME280;57587;55.688;37.600;2023-02-23T10:56:14;99582.47;;;11.36;17.06
70200;BME280;57587;55.688;37.600;2023-02-23T10:58:54;99585.75;;;11.01;17.55
70200;BME280;57587;55.688;37.600;2023-02-23T11:01:39;99583.56;;;10.90;17.65
70200;BME280;57587;55.688;37.600;2023-02-23T11:04:32;99584.19;;;10.48;18.07
70200;BME280;57587;55.688;37.600;2023-02-23T11:09:37;99571.63;;;9.73;18.52
70200;BME280;57587;55.688;37.600;2023-02-23T11:14:50;99572.81;;;8.76;19.07
70200;BME280;57587;55.688;37.600;2023-02-23T11:17:36;99574.06;;;8.41;20.25
70200;BME280;57587;55.688;37.600;2023-02-23T11:22:48;99568.16;;;7.23;20.94
70200;BME280;57587;55.688;37.600;2023-02-23T11:25:27;99566.06;;;6.92;21.71
70200;BME280;57587;55.688;37.600;2023-02-23T11:27:56;99565.31;;;6.40;22.63
70200;BME280;57587;55.688;37.600;2023-02-23T11:30:34;99558.97;;;5.89;21.88
70200;BME280;57587;55.688;37.600;2023-02-23T11:33:06;99555.19;;;5.55;23.04
70200;BME280;57587;55.688;37.600;2023-02-23T11:35:37;99567.38;;;5.30;24.15
70200;BME280;57587;55.688;37.600;2023-02-23T11:38:22;99562.25;;;5.01;24.82
70200;BME280;57587;55.688;37.600;2023-02-23T11:41:05;99570.59;;;4.42;24.69
70200;BME280;57587;55.688;37.600;2023-02-23T11:43:33;99574.34;;;3.92;25.41
70200;BME280;57587;55.688;37.600;2023-02-23T11:46:02;99574.22;;;3.45;26.74
70200;BME280;57587;55.688;37.600;2023-02-23T11:48:49;99573.47;;;3.04;26.63
70200;BME280;57587;55.688;37.600;2023-02-23T11:51:32;99572.38;;;2.36;27.95
70200;BME280;57587;55.688;37.600;2023-02-23T11:54:02;99567.88;;;1.64;28.47
70200;BME280;57587;55.688;37.600;2023-02-23T11:56:33;99571.25;;;1.22;29.22
70200;BME280;57587;55.688;37.600;2023-02-23T11:59:15;99564.66;;;0.73;29.79
70200;BME280;57587;55.688;37.600;2023-02-23T12:01:46;99562.84;;;0.17;30.70
70200;BME280;57587;55.688;37.600;2023-02-23T12:04:26;99565.06;;;-0.12;32.21
70200;BME280;57587;55.688;37.600;2023-02-23T12:07:26;99557.03;;;-0.57;32.18
70200;BME280;57587;55.688;37.600;2023-02-23T12:15:47;99570.66;;;-1.36;33.80
70200;BME280;57587;55.688;37.600;2023-02-23T12:20:46;99570.50;;;-1.72;34.86
70200;BME280;57587;55.688;37.600;2023-02-23T12:23:20;99570.72;;;-1.75;35.25
70200;BME280;57587;55.688;37.600;2023-02-23T12:25:56;99565.81;;;-1.79;35.16
70200;BME280;57587;55.688;37.600;2023-02-23T12:28:36;99574.38;;;-1.77;35.24
70200;BME280;57587;55.688;37.600;2023-02-23T12:31:20;99566.44;;;-1.89;35.19
70200;BME280;57587;55.688;37.600;2023-02-23T12:34:00;99566.44;;;-1.89;35.56
70200;BME280;57587;55.688;37.600;2023-02-23T12:36:43;99571.44;;;-1.98;35.59
70200;BME280;57587;55.688;37.600;2023-02-23T12:39:50;99566.38;;;-2.14;35.27
70200;BME280;57587;55.688;37.600;2023-02-23T12:42:44;99572.59;;;-2.15;36.20
70200;BME280;57587;55.688;37.600;2023-02-23T12:45:31;99572.25;;;-2.23;35.21
70200;BME280;57587;55.688;37.600;2023-02-23T12:50:50;99574.97;;;-2.38;35.74
70200;BME280;57587;55.688;37.600;2023-02-23T12:53:37;99577.59;;;-2.38;36.12
70200;BME280;57587;55.688;37.600;2023-02-23T13:02:40;99571.75;;;-2.68;36.79
70200;BME280;57587;55.688;37.600;2023-02-23T13:05:30;99575.75;;;-2.90;36.26
70200;BME280;57587;55.688;37.600;2023-02-23T13:08:18;99573.50;;;-2.96;36.74
70200;BME280;57587;55.688;37.600;2023-02-23T13:16:36;99579.09;;;-3.15;36.33
70200;BME280;57587;55.688;37.600;2023-02-23T13:24:43;99575.88;;;-3.06;37.64
70200;BME280;57587;55.688;37.600;2023-02-23T13:27:23;99581.59;;;-3.13;37.33
70200;BME280;57587;55.688;37.600;2023-02-23T13:29:53;99578.53;;;-3.20;37.41
70200;BME280;57587;55.688;37.600;2023-02-23T13:32:24;99579.34;;;-3.19;37.12
70200;BME280;57587;55.688;37.600;2023-02-23T13:35:03;99581.25;;;-3.21;37.37
70200;BME280;57587;55.688;37.600;2023-02-23T13:46:00;99584.81;;;-3.37;38.36
70200;BME280;57587;55.688;37.600;2023-02-23T13:51:45;99584.38;;;-3.43;38.26
70200;BME280;57587;55.688;37.600;2023-02-23T13:56:56;99582.84;;;-3.48;39.30
70200;BME280;57587;55.688;37.600;2023-02-23T13:59:30;99584.06;;;-3.53;39.03
70200;BME280;57587;55.688;37.600;2023-02-23T14:02:05;99582.69;;;-3.59;39.60
70200;BME280;57587;55.688;37.600;2023-02-23T14:04:36;99591.44;;;-3.60;39.09
70200;BME280;57587;55.688;37.600;2023-02-23T14:09:54;99584.25;;;-3.56;39.86
70200;BME280;57587;55.688;37.600;2023-02-23T14:14:51;99573.25;;;-3.76;39.96
70200;BME280;57587;55.688;37.600;2023-02-23T14:25:49;99575.31;;;-3.81;40.33
70200;BME280;57587;55.688;37.600;2023-02-23T14:28:33;99565.22;;;-3.87;40.38
70200;BME280;57587;55.688;37.600;2023-02-23T14:39:12;99560.97;;;-4.18;42.16
70200;BME280;57587;55.688;37.600;2023-02-23T14:41:55;99560.41;;;-4.23;42.10
70200;BME280;57587;55.688;37.600;2023-02-23T14:44:34;99559.28;;;-4.19;42.85
70200;BME280;57587;55.688;37.600;2023-02-23T14:47:06;99561.03;;;-4.34;42.61
70200;BME280;57587;55.688;37.600;2023-02-23T14:49:36;99559.50;;;-4.52;43.24
70200;BME280;57587;55.688;37.600;2023-02-23T14:52:18;99562.28;;;-4.55;43.51
70200;BME280;57587;55.688;37.600;2023-02-23T14:54:50;99557.91;;;-4.55;43.00
70200;BME280;57587;55.688;37.600;2023-02-23T14:57:24;99554.53;;;-4.57;43.34
70200;BME280;57587;55.688;37.600;2023-02-23T15:00:01;99535.13;;;-4.67;43.49
70200;BME280;57587;55.688;37.600;2023-02-23T15:02:32;99541.19;;;-4.67;43.49
70200;BME280;57587;55.688;37.600;2023-02-23T15:05:14;99539.66;;;-4.71;43.62
70200;BME280;57587;55.688;37.600;2023-02-23T15:07:42;99548.13;;;-4.81;43.86
70200;BME280;57587;55.688;37.600;2023-02-23T15:10:19;99554.19;;;-4.81;44.47
70200;BME280;57587;55.688;37.600;2023-02-23T15:12:48;99552.22;;;-4.77;44.14
70200;BME280;57587;55.688;37.600;2023-02-23T15:15:22;99548.22;;;-4.83;44.26
70200;BME280;57587;55.688;37.600;2023-02-23T15:17:53;99550.59;;;-4.94;43.92
70200;BME280;57587;55.688;37.600;2023-02-23T15:20:26;99555.22;;;-4.99;43.83
70200;BME280;57587;55.688;37.600;2023-02-23T15:22:55;99551.44;;;-4.94;44.04
70200;BME280;57587;55.688;37.600;2023-02-23T15:25:34;99561.13;;;-5.12;44.50
70200;BME280;57587;55.688;37.600;2023-02-23T15:28:24;99558.34;;;-5.08;44.06
70200;BME280;57587;55.688;37.600;2023-02-23T15:30:59;99552.13;;;-5.22;44.46
70200;BME280;57587;55.688;37.600;2023-02-23T15:33:26;99564.22;;;-5.21;44.93
70200;BME280;57587;55.688;37.600;2023-02-23T15:36:15;99553.22;;;-5.26;44.34
70200;BME280;57587;55.688;37.600;2023-02-23T15:38:48;99547.91;;;-5.24;44.96
70200;BME280;57587;55.688;37.600;2023-02-23T15:41:33;99555.84;;;-5.26;44.84
70200;BME280;57587;55.688;37.600;2023-02-23T15:44:23;99559.69;;;-5.33;44.50